createdAt,value
2019-03-04T00:01:47.036Z,10.51
2019-03-04T00:04:19.218Z,10.47
2019-03-04T00:06:51.390Z,10.50
2019-03-04T00:09:23.452Z,10.45
2019-03-04T00:11:55.511Z,10.48
2019-03-04T00:14:27.480Z,10.48
2019-03-04T00:16:59.500Z,10.48
2019-03-04T00:19:31.394Z,10.48
2019-03-04T00:22:03.378Z,10.51
2019-03-04T00:24:35.538Z,10.50
2019-03-04T00:27:07.574Z,10.46
2019-03-04T00:29:39.554Z,10.40
2019-03-04T00:32:11.639Z,10.39
2019-03-04T00:34:43.683Z,10.41
2019-03-04T00:37:15.748Z,10.39
2019-03-04T00:39:47.670Z,10.33
2019-03-04T00:42:19.681Z,10.32
2019-03-04T00:44:51.693Z,10.26
2019-03-04T00:47:23.613Z,10.24
2019-03-04T00:49:57.066Z,10.17
2019-03-04T00:52:29.017Z,10.19
2019-03-04T00:55:01.046Z,10.23
2019-03-04T00:57:34.125Z,10.20
2019-03-04T01:00:08.655Z,10.18
2019-03-04T01:02:40.673Z,10.10
2019-03-04T01:05:12.825Z,10.08
2019-03-04T01:07:45.049Z,10.10
2019-03-04T01:10:17.930Z,10.11
2019-03-04T01:12:50.103Z,10.09
2019-03-04T01:15:22.875Z,10.09
2019-03-04T01:17:54.849Z,10.07
2019-03-04T01:20:26.803Z,10.09
2019-03-04T01:22:58.825Z,10.04
2019-03-04T01:25:30.801Z,9.97
2019-03-04T01:28:02.842Z,9.89
2019-03-04T01:30:34.938Z,9.79
2019-03-04T01:33:07.065Z,9.81
2019-03-04T01:35:38.998Z,9.89
2019-03-04T01:38:10.978Z,9.76
2019-03-04T01:40:42.955Z,9.67
2019-03-04T01:43:14.942Z,9.57
2019-03-04T01:45:47.106Z,9.66
2019-03-04T01:48:19.405Z,9.53
2019-03-04T01:50:51.422Z,9.45
2019-03-04T01:53:23.426Z,9.50
2019-03-04T01:55:55.372Z,9.37
2019-03-04T01:58:27.484Z,9.30
2019-03-04T02:00:59.433Z,9.34
2019-03-04T02:03:31.604Z,9.25
2019-03-04T02:06:03.572Z,9.22
2019-03-04T02:08:35.636Z,9.38
2019-03-04T02:11:07.679Z,9.33
2019-03-04T02:13:39.770Z,9.32
2019-03-04T02:16:12.027Z,9.25
2019-03-04T02:18:44.189Z,9.17
2019-03-04T02:21:16.258Z,9.27
2019-03-04T02:23:48.320Z,9.29
2019-03-04T02:26:28.545Z,9.34
2019-03-04T02:29:00.544Z,9.34
2019-03-04T02:31:32.663Z,9.26
2019-03-04T02:34:05.279Z,9.41
2019-03-04T02:36:37.402Z,9.60
2019-03-04T02:39:10.199Z,9.72
2019-03-04T02:41:42.630Z,9.78
2019-03-04T02:44:14.828Z,9.78
2019-03-04T02:46:46.947Z,9.76
2019-03-04T02:49:19.482Z,9.76
2019-03-04T02:51:51.909Z,9.62
2019-03-04T02:54:23.968Z,9.57
2019-03-04T02:56:56.243Z,9.51
2019-03-04T02:59:28.349Z,9.77
2019-03-04T03:02:00.672Z,10.00
2019-03-04T03:04:32.838Z,10.04
2019-03-04T03:07:05.174Z,10.07
2019-03-04T03:09:37.270Z,10.08
2019-03-04T03:12:09.347Z,10.06
2019-03-04T03:14:41.461Z,9.91
2019-03-04T03:17:13.530Z,9.72
2019-03-04T03:19:45.710Z,9.62
2019-03-04T03:22:17.738Z,9.62
2019-03-04T03:24:49.833Z,9.57
2019-03-04T03:27:21.898Z,9.50
2019-03-04T03:29:53.834Z,9.44
2019-03-04T03:32:26.670Z,9.33
2019-03-04T03:34:58.708Z,9.38
2019-03-04T03:37:30.795Z,9.33
2019-03-04T03:40:02.713Z,9.26
2019-03-04T03:42:35.111Z,9.26
2019-03-04T03:45:09.291Z,9.23
2019-03-04T03:47:41.365Z,9.17
2019-03-04T03:50:13.917Z,9.31
2019-03-04T03:52:46.141Z,9.28
2019-03-04T03:55:18.743Z,9.12
2019-03-04T03:57:50.978Z,9.03
2019-03-04T04:00:23.250Z,8.96
2019-03-04T04:02:55.276Z,8.98
2019-03-04T04:05:27.171Z,8.91
2019-03-04T04:07:59.106Z,8.97
2019-03-04T04:10:31.206Z,8.92
2019-03-04T04:13:03.182Z,8.78
2019-03-04T04:15:35.316Z,8.67
2019-03-04T04:18:07.496Z,8.73
2019-03-04T04:20:39.461Z,8.69
2019-03-04T04:23:11.532Z,8.76
2019-03-04T04:25:55.445Z,8.78
2019-03-04T04:28:28.048Z,8.79
2019-03-04T04:31:00.055Z,8.86
2019-03-04T04:33:32.260Z,8.99
2019-03-04T04:36:04.341Z,9.00
2019-03-04T04:38:36.426Z,9.08
2019-03-04T04:41:08.534Z,9.10
2019-03-04T04:43:40.678Z,9.14
2019-03-04T04:46:12.848Z,9.29
2019-03-04T04:48:44.862Z,9.31
2019-03-04T04:51:16.899Z,9.45
2019-03-04T04:53:49.040Z,9.39
2019-03-04T04:56:21.000Z,9.37
2019-03-04T04:58:52.942Z,9.34
2019-03-04T05:01:24.893Z,9.34
2019-03-04T05:03:56.937Z,9.42
2019-03-04T05:06:29.127Z,9.49
2019-03-04T05:09:01.191Z,9.67
2019-03-04T05:11:34.767Z,9.86
2019-03-04T05:14:06.901Z,10.04
2019-03-04T05:16:39.019Z,10.02
2019-03-04T05:19:16.497Z,10.01
2019-03-04T05:21:47.428Z,10.05
2019-03-04T05:24:20.089Z,10.20
2019-03-04T05:26:52.580Z,10.33
2019-03-04T05:29:24.676Z,10.43
2019-03-04T05:31:56.668Z,10.45
2019-03-04T05:34:28.627Z,10.53
2019-03-04T05:37:00.515Z,10.53
2019-03-04T05:39:32.509Z,10.54
2019-03-04T05:42:04.435Z,10.55
2019-03-04T05:44:36.363Z,10.68
2019-03-04T05:47:08.279Z,10.71
2019-03-04T05:49:40.211Z,10.77
2019-03-04T06:09:48.327Z,11.07
2019-03-04T06:12:20.159Z,11.06
2019-03-04T06:14:52.164Z,11.08
2019-03-04T06:17:24.087Z,11.11
2019-03-04T06:19:55.953Z,11.13
2019-03-04T06:22:27.767Z,11.12
2019-03-04T06:24:59.683Z,11.16
2019-03-04T06:27:31.527Z,11.19
2019-03-04T06:30:03.671Z,11.28
2019-03-04T06:32:35.682Z,11.33
2019-03-04T06:35:08.887Z,11.39
2019-03-04T06:37:40.733Z,11.41
2019-03-04T06:40:14.078Z,11.42
2019-03-04T06:42:46.219Z,11.40
2019-03-04T06:45:18.242Z,11.41
2019-03-04T06:47:50.107Z,11.40
2019-03-04T06:50:53.302Z,11.41
2019-03-04T06:53:42.668Z,11.35
2019-03-04T06:56:54.588Z,11.28
2019-03-04T07:00:22.665Z,11.28
2019-03-04T07:02:54.619Z,11.18
2019-03-04T07:05:54.804Z,11.13
2019-03-04T07:09:05.289Z,11.11
2019-03-04T07:11:43.655Z,11.22
2019-03-04T07:14:15.615Z,11.44
2019-03-04T07:16:50.600Z,11.52
2019-03-04T07:19:32.468Z,11.50
2019-03-04T07:22:04.484Z,11.65
2019-03-04T07:24:36.295Z,11.88
2019-03-04T07:27:08.131Z,11.93
2019-03-04T07:29:40.006Z,12.08
2019-03-04T07:32:11.964Z,12.31
2019-03-04T07:34:43.908Z,12.34
2019-03-04T07:37:15.792Z,12.51
2019-03-04T07:39:47.635Z,13.00
2019-03-04T07:42:19.498Z,13.40
2019-03-04T07:44:51.440Z,13.52
2019-03-04T07:47:23.376Z,13.35
2019-03-04T07:49:55.266Z,13.48
2019-03-04T07:52:27.231Z,13.72
2019-03-04T07:54:59.136Z,13.84
2019-03-04T07:57:31.048Z,13.79
2019-03-04T08:00:02.860Z,13.73
2019-03-04T08:02:35.872Z,13.89
2019-03-04T08:05:08.607Z,14.07
2019-03-04T08:07:47.080Z,14.31
2019-03-04T08:11:14.138Z,14.56
2019-03-04T08:13:51.849Z,14.50
2019-03-04T08:16:23.681Z,14.41
2019-03-04T08:18:55.583Z,14.53
2019-03-04T08:21:27.559Z,14.45
2019-03-04T08:23:59.467Z,14.43
2019-03-04T08:26:31.358Z,14.54
2019-03-04T08:29:03.167Z,14.91
2019-03-04T08:31:35.144Z,15.31
2019-03-04T08:34:09.209Z,15.54
2019-03-04T08:36:40.618Z,15.51
2019-03-04T08:39:12.980Z,15.37
2019-03-04T08:41:44.876Z,15.22
2019-03-04T08:44:16.756Z,15.05
2019-03-04T08:46:48.752Z,14.80
2019-03-04T08:49:20.622Z,14.94
2019-03-04T08:51:52.644Z,15.34
2019-03-04T08:54:24.521Z,15.59
2019-03-04T08:57:03.703Z,15.70
2019-03-04T08:59:29.939Z,15.66
2019-03-04T09:02:01.807Z,16.09
2019-03-04T09:04:33.700Z,15.96
2019-03-04T09:07:05.588Z,15.73
2019-03-04T09:09:37.529Z,16.06
2019-03-04T09:12:09.464Z,15.57
2019-03-04T09:14:41.306Z,15.80
2019-03-04T09:17:13.331Z,15.77
2019-03-04T09:19:45.218Z,15.61
2019-03-04T09:22:17.174Z,15.47
2019-03-04T09:24:49.107Z,15.17
2019-03-04T09:27:21.272Z,15.12
2019-03-04T09:29:53.147Z,15.28
2019-03-04T09:32:25.013Z,15.45
2019-03-04T09:34:56.852Z,15.60
2019-03-04T09:37:28.733Z,15.42
2019-03-04T09:40:00.698Z,15.21
2019-03-04T09:42:32.825Z,15.18
2019-03-04T09:45:05.998Z,15.13
2019-03-04T09:47:37.887Z,15.24
2019-03-04T09:50:13.589Z,15.24
2019-03-04T09:52:45.694Z,15.11
2019-03-04T09:55:18.919Z,15.22
2019-03-04T09:57:50.946Z,14.83
2019-03-04T10:00:36.615Z,14.86
2019-03-04T10:03:56.526Z,14.83
2019-03-04T10:06:58.321Z,14.70
2019-03-04T10:10:19.917Z,14.82
2019-03-04T10:13:58.740Z,14.81
2019-03-04T10:17:44.661Z,14.85
2019-03-04T10:21:25.275Z,14.86
2019-03-04T10:24:40.191Z,15.09
2019-03-04T10:27:58.855Z,15.22
2019-03-04T10:31:22.299Z,15.39
2019-03-04T10:34:43.077Z,15.38
2019-03-04T10:37:53.557Z,15.55
2019-03-04T10:41:43.869Z,15.63
2019-03-04T10:45:10.689Z,15.52
2019-03-04T10:47:42.721Z,15.89
2019-03-04T10:50:14.733Z,16.46
2019-03-04T10:52:46.830Z,16.88
2019-03-04T10:55:20.249Z,17.13
2019-03-04T10:57:52.020Z,16.93
2019-03-04T11:00:24.972Z,16.88
2019-03-04T11:02:56.877Z,16.60
2019-03-04T11:05:28.867Z,16.42
2019-03-04T11:08:00.796Z,16.44
2019-03-04T11:10:32.722Z,16.50
2019-03-04T11:13:05.216Z,16.61
2019-03-04T11:15:37.131Z,16.63
2019-03-04T11:18:09.035Z,16.52
2019-03-04T11:20:40.881Z,16.82
2019-03-04T11:23:15.132Z,17.07
2019-03-04T11:25:47.421Z,17.24
2019-03-04T11:28:19.409Z,17.54
2019-03-04T11:30:51.315Z,17.35
2019-03-04T11:33:23.142Z,17.06
2019-03-04T11:35:55.082Z,17.26
2019-03-04T11:38:49.009Z,17.31
2019-03-04T11:41:23.213Z,17.16
2019-03-04T11:43:55.172Z,17.55
2019-03-04T11:46:27.103Z,17.67
2019-03-04T11:48:58.927Z,17.54
2019-03-04T11:51:30.839Z,17.46
2019-03-04T11:54:02.821Z,17.19
2019-03-04T11:56:34.736Z,17.26
2019-03-04T11:59:06.658Z,17.22
2019-03-04T12:01:42.936Z,17.47
2019-03-04T12:04:14.840Z,17.39
2019-03-04T12:06:46.831Z,17.34
2019-03-04T12:09:18.821Z,17.42
2019-03-04T12:11:50.825Z,16.97
2019-03-04T12:14:22.683Z,16.91
2019-03-04T12:16:54.604Z,16.83
2019-03-04T12:19:28.621Z,16.91
2019-03-04T12:22:02.190Z,16.75
2019-03-04T12:24:34.177Z,16.83
2019-03-04T12:27:06.892Z,16.85
2019-03-04T12:29:38.837Z,16.90
2019-03-04T12:32:15.045Z,16.88
2019-03-04T12:34:46.906Z,16.75
2019-03-04T12:37:18.948Z,16.79
2019-03-04T12:39:50.842Z,16.79
2019-03-04T12:42:22.780Z,16.41
2019-03-04T12:44:54.645Z,16.23
2019-03-04T12:47:26.418Z,16.06
2019-03-04T12:49:59.419Z,15.88
2019-03-04T12:52:31.363Z,15.83
2019-03-04T12:55:03.290Z,15.68
2019-03-04T12:57:35.368Z,15.92
2019-03-04T13:00:18.464Z,15.97
2019-03-04T13:02:57.614Z,16.31
2019-03-04T13:05:25.560Z,16.90
2019-03-04T13:07:57.643Z,16.87
2019-03-04T13:10:33.507Z,16.38
2019-03-04T13:13:04.196Z,16.08
2019-03-04T13:15:36.352Z,15.84
2019-03-04T13:18:10.119Z,15.54
2019-03-04T13:20:42.903Z,15.72
2019-03-04T13:23:15.286Z,15.79
2019-03-04T13:25:48.835Z,15.96
2019-03-04T13:28:21.123Z,15.42
2019-03-04T13:30:54.614Z,15.27
2019-03-04T13:33:26.766Z,15.40
2019-03-04T13:35:58.983Z,15.29
2019-03-04T13:38:31.223Z,15.27
2019-03-04T13:41:03.504Z,15.33
2019-03-04T13:43:35.608Z,15.27
2019-03-04T13:46:07.828Z,15.16
2019-03-04T13:48:39.346Z,15.43
2019-03-04T13:51:11.522Z,15.18
2019-03-04T13:53:43.670Z,15.35
2019-03-04T13:56:15.852Z,15.52
2019-03-04T13:58:48.011Z,15.68
2019-03-04T14:01:20.065Z,16.01
2019-03-04T14:03:52.139Z,16.02
2019-03-04T14:06:24.362Z,15.78
2019-03-04T14:08:56.560Z,15.48
2019-03-04T14:11:32.289Z,15.40
2019-03-04T14:14:06.130Z,15.41
2019-03-04T14:16:40.835Z,15.31
2019-03-04T14:19:35.268Z,15.21
2019-03-04T14:22:07.613Z,15.03
2019-03-04T14:24:39.967Z,14.79
2019-03-04T14:27:12.597Z,14.65
2019-03-04T14:29:44.832Z,14.64
2019-03-04T14:32:25.939Z,14.77
2019-03-04T14:35:00.969Z,14.79
2019-03-04T14:37:33.390Z,14.79
2019-03-04T14:40:10.671Z,14.76
2019-03-04T14:42:47.017Z,14.70
2019-03-04T14:45:36.034Z,14.69
2019-03-04T14:48:08.476Z,14.47
2019-03-04T14:50:40.895Z,14.50
2019-03-04T14:53:40.617Z,14.47
2019-03-04T14:56:42.404Z,14.44
2019-03-04T14:59:28.419Z,14.28
2019-03-04T15:01:52.663Z,14.41
2019-03-04T15:04:30.740Z,14.33
2019-03-04T15:07:02.836Z,14.75
2019-03-04T15:09:34.857Z,14.69
2019-03-04T15:12:06.975Z,14.56
2019-03-04T15:14:38.931Z,14.28
2019-03-04T15:17:20.869Z,14.16
2019-03-04T15:19:53.046Z,14.08
2019-03-04T15:22:34.409Z,13.97
2019-03-04T15:24:58.824Z,13.87
2019-03-04T15:27:30.794Z,13.88
2019-03-04T15:30:03.241Z,13.83
2019-03-04T15:32:37.070Z,13.77
2019-03-04T15:35:09.620Z,13.93
2019-03-04T15:37:41.695Z,13.90
2019-03-04T15:40:17.208Z,13.70
2019-03-04T15:42:55.774Z,13.50
2019-03-04T15:45:33.943Z,13.50
2019-03-04T15:48:11.404Z,13.43
2019-03-04T15:50:45.986Z,13.48
2019-03-04T15:53:39.494Z,13.49
2019-03-04T15:59:19.945Z,13.46
2019-03-04T16:02:04.718Z,13.35
2019-03-04T16:05:37.323Z,13.35
2019-03-04T16:11:46.273Z,13.23
2019-03-04T16:14:35.620Z,13.23
2019-03-04T16:18:09.174Z,13.16
2019-03-04T16:21:49.029Z,13.13
2019-03-04T16:24:23.877Z,13.10
2019-03-04T16:33:06.396Z,12.94
2019-03-04T16:55:02.653Z,11.96
2019-03-04T16:57:34.857Z,12.13
2019-03-04T17:00:09.880Z,12.15
2019-03-04T17:02:42.214Z,12.26
2019-03-04T17:05:16.219Z,12.34
2019-03-04T17:07:51.116Z,12.38
2019-03-04T17:10:23.650Z,12.36
2019-03-04T17:13:02.293Z,11.95
2019-03-04T17:15:44.496Z,11.15
2019-03-04T17:18:11.521Z,10.33
2019-03-04T17:20:43.494Z,9.96
2019-03-04T17:23:18.816Z,9.75
2019-03-04T17:25:51.095Z,9.68
2019-03-04T17:28:24.167Z,9.60
2019-03-04T17:30:59.064Z,9.84
2019-03-04T17:33:31.044Z,9.72
2019-03-04T17:36:03.078Z,9.79
2019-03-04T17:38:37.367Z,9.85
2019-03-04T17:41:09.483Z,9.85
2019-03-04T17:43:41.506Z,10.02
2019-03-04T17:46:13.791Z,10.16
2019-03-04T17:48:45.923Z,10.36
2019-03-04T17:51:18.230Z,10.48
2019-03-04T17:53:52.355Z,9.81
2019-03-04T17:56:29.234Z,8.79
2019-03-04T17:59:04.283Z,7.96
2019-03-04T18:01:42.994Z,7.58
2019-03-04T18:04:20.298Z,7.36
2019-03-04T18:06:56.119Z,7.25
2019-03-04T18:09:44.034Z,7.17
2019-03-04T18:12:18.405Z,7.11
2019-03-04T18:14:50.517Z,7.01
2019-03-04T18:17:24.281Z,7.04
2019-03-04T18:19:58.093Z,7.02
2019-03-04T18:22:31.840Z,6.99
2019-03-04T18:25:03.893Z,6.93
2019-03-04T18:28:01.591Z,6.91
2019-03-04T18:31:15.807Z,6.85
2019-03-04T18:48:47.889Z,6.90
2019-03-04T18:51:54.163Z,6.34
2019-03-04T18:56:21.585Z,6.32
2019-03-04T19:04:23.869Z,6.12
2019-03-04T19:07:03.483Z,6.13
2019-03-04T19:09:37.275Z,5.98
2019-03-04T19:12:19.878Z,5.96
2019-03-04T19:15:14.713Z,5.89
2019-03-04T19:17:58.571Z,5.81
2019-03-04T19:20:32.423Z,5.78
2019-03-04T19:23:06.246Z,5.69
2019-03-04T19:25:46.131Z,5.68
2019-03-04T19:28:26.063Z,5.69
2019-03-04T19:31:06.859Z,5.64
2019-03-04T19:33:49.446Z,5.54
2019-03-04T19:36:12.757Z,5.44
2019-03-04T19:38:46.353Z,5.40
2019-03-04T19:41:18.387Z,5.34
2019-03-04T19:43:50.441Z,5.41
2019-03-04T19:46:22.637Z,5.34
2019-03-04T19:48:54.909Z,5.33
2019-03-04T19:51:28.457Z,5.35
2019-03-04T19:54:00.489Z,5.28
2019-03-04T19:56:33.023Z,5.28
2019-03-04T19:59:05.161Z,5.23
2019-03-04T20:01:37.223Z,5.29
2019-03-04T20:04:09.580Z,5.25
2019-03-04T20:06:41.836Z,5.33
2019-03-04T20:09:14.174Z,5.48
2019-03-04T20:11:47.137Z,5.53
2019-03-04T20:14:22.885Z,5.66
2019-03-04T20:16:55.430Z,5.57
2019-03-04T20:19:29.463Z,5.54
2019-03-04T20:22:02.972Z,5.70
2019-03-04T20:24:35.397Z,5.81
2019-03-04T20:27:07.320Z,5.84
2019-03-04T20:29:39.361Z,5.85
2019-03-04T20:32:11.412Z,5.91
2019-03-04T20:34:43.607Z,5.97
2019-03-04T20:37:15.732Z,5.92
2019-03-04T20:39:48.232Z,5.91
2019-03-04T20:42:22.290Z,5.75
2019-03-04T20:44:54.256Z,5.75
2019-03-04T20:47:26.224Z,5.95
2019-03-04T20:49:59.328Z,6.07
2019-03-04T20:52:32.572Z,6.13
2019-03-04T20:55:12.671Z,6.13
2019-03-04T20:57:51.267Z,5.97
2019-03-04T21:00:34.752Z,5.80
2019-03-04T21:03:19.995Z,5.92
2019-03-04T21:05:53.217Z,5.84
2019-03-04T21:08:25.311Z,5.78
2019-03-04T21:11:02.300Z,5.72
2019-03-04T21:13:35.871Z,5.80
2019-03-04T21:16:27.471Z,5.74
2019-03-04T21:19:01.228Z,5.66
2019-03-04T21:21:33.359Z,5.76
2019-03-04T21:24:10.253Z,5.74
2019-03-04T21:26:51.629Z,5.74
2019-03-04T21:30:41.739Z,5.71
2019-03-04T21:33:33.100Z,5.79
2019-03-04T21:36:51.459Z,5.75
2019-03-04T21:39:35.072Z,5.69
2019-03-04T21:42:32.125Z,5.64
2019-03-04T21:46:26.808Z,5.79
2019-03-04T21:49:07.007Z,5.70
2019-03-04T21:52:27.247Z,5.60
2019-03-04T21:54:59.279Z,5.73
2019-03-04T21:57:56.471Z,5.73
2019-03-04T22:00:40.116Z,5.82
2019-03-04T22:03:28.653Z,5.73
2019-03-04T22:06:01.029Z,5.76
2019-03-04T22:08:33.014Z,5.86
2019-03-04T22:11:06.234Z,5.83
2019-03-04T22:13:38.211Z,5.96
2019-03-04T22:16:10.216Z,6.11
2019-03-04T22:18:42.156Z,5.98
2019-03-04T22:21:16.713Z,5.98
2019-03-04T22:23:47.847Z,5.98
2019-03-04T22:26:19.926Z,5.91
2019-03-04T22:28:51.811Z,5.79
2019-03-04T22:31:23.858Z,5.91
2019-03-04T22:33:55.860Z,6.01
2019-03-04T22:36:27.828Z,5.95
2019-03-04T22:38:59.794Z,6.00
2019-03-04T22:41:31.701Z,6.08
2019-03-04T22:44:03.801Z,6.20
2019-03-04T22:46:35.783Z,6.05
2019-03-04T22:49:07.743Z,6.05
2019-03-04T22:51:41.755Z,6.13
2019-03-04T22:54:13.618Z,6.11
2019-03-04T22:56:45.630Z,6.04
2019-03-04T22:59:17.493Z,6.15
2019-03-04T23:02:08.581Z,6.07
2019-03-04T23:05:15.340Z,6.07
2019-03-04T23:07:54.470Z,5.97
2019-03-04T23:10:41.114Z,5.92
2019-03-04T23:13:47.699Z,6.09
2019-03-04T23:16:24.046Z,6.07
2019-03-04T23:18:55.959Z,5.91
2019-03-04T23:21:27.792Z,5.93
2019-03-04T23:23:59.640Z,5.97
2019-03-04T23:26:31.603Z,5.83
2019-03-04T23:29:03.562Z,5.82
2019-03-04T23:31:35.359Z,5.81
2019-03-04T23:34:07.219Z,5.89
2019-03-04T23:36:39.045Z,5.94
2019-03-04T23:39:11.082Z,5.90
2019-03-04T23:41:42.971Z,5.95
2019-03-04T23:44:14.819Z,6.14
2019-03-04T23:46:46.594Z,6.36
2019-03-04T23:49:18.605Z,6.41
2019-03-04T23:51:50.447Z,6.42
2019-03-04T23:54:22.292Z,6.43
2019-03-04T23:56:54.158Z,6.35
2019-03-04T23:59:26.075Z,6.39
